createdAt,value
2018-06-11T00:00:49.786Z,0
2018-06-11T00:01:49.519Z,0
2018-06-11T00:02:49.773Z,0
2018-06-11T00:03:49.771Z,0
2018-06-11T00:04:49.508Z,0
2018-06-11T00:05:49.503Z,0
2018-06-11T00:06:49.754Z,0
2018-06-11T00:07:49.754Z,0
2018-06-11T00:08:49.748Z,0
2018-06-11T00:09:49.742Z,0
2018-06-11T00:10:49.737Z,0
2018-06-11T00:11:49.734Z,0
2018-06-11T00:12:49.727Z,0
2018-06-11T00:13:49.723Z,0
2018-06-11T00:14:49.722Z,0
2018-06-11T00:15:49.717Z,0
2018-06-11T00:16:49.712Z,0
2018-06-11T00:17:49.713Z,0
2018-06-11T00:18:49.703Z,0
2018-06-11T00:19:49.698Z,0
2018-06-11T00:20:49.695Z,0
2018-06-11T00:21:49.690Z,0
2018-06-11T00:22:49.687Z,0
2018-06-11T00:23:49.688Z,0
2018-06-11T00:24:49.677Z,0
2018-06-11T00:25:49.677Z,0
2018-06-11T00:26:49.673Z,0
2018-06-11T00:27:49.664Z,0
2018-06-11T00:28:49.405Z,0
2018-06-11T00:29:49.655Z,0
2018-06-11T00:30:49.400Z,0
2018-06-11T00:31:49.648Z,0
2018-06-11T00:32:49.646Z,0
2018-06-11T00:33:49.645Z,0
2018-06-11T00:34:49.636Z,0
2018-06-11T00:35:49.376Z,0
2018-06-11T00:36:49.374Z,0
2018-06-11T00:37:49.624Z,0
2018-06-11T00:38:49.629Z,0
2018-06-11T00:39:49.617Z,0
2018-06-11T00:40:49.612Z,0
2018-06-11T00:41:49.606Z,0
2018-06-11T00:42:49.352Z,0
2018-06-11T00:43:49.340Z,0
2018-06-11T00:44:49.591Z,0
2018-06-11T00:45:49.333Z,0
2018-06-11T00:46:49.327Z,0
2018-06-11T00:47:49.578Z,0
2018-06-11T00:48:49.577Z,0
2018-06-11T00:49:49.573Z,0
2018-06-11T00:50:49.571Z,0
2018-06-11T00:51:49.563Z,0
2018-06-11T00:52:49.559Z,0
2018-06-11T00:53:49.555Z,0
2018-06-11T00:54:49.550Z,0
2018-06-11T00:55:49.560Z,0
2018-06-11T00:56:49.543Z,0
2018-06-11T00:57:49.538Z,0
2018-06-11T00:58:49.533Z,0
2018-06-11T00:59:49.566Z,0
2018-06-11T01:00:49.267Z,0
2018-06-11T01:01:49.263Z,0
2018-06-11T01:02:49.514Z,0
2018-06-11T01:03:49.515Z,0
2018-06-11T01:04:49.507Z,0
2018-06-11T01:05:49.501Z,0
2018-06-11T01:06:49.496Z,0
2018-06-11T01:07:49.492Z,0
2018-06-11T01:08:49.490Z,0
2018-06-11T01:09:49.486Z,0
2018-06-11T01:10:49.490Z,0
2018-06-11T01:11:49.220Z,0
2018-06-11T01:12:49.476Z,0
2018-06-11T01:13:49.468Z,0
2018-06-11T01:14:49.204Z,0
2018-06-11T01:15:49.460Z,0
2018-06-11T01:16:49.452Z,0
2018-06-11T01:17:49.449Z,0
2018-06-11T01:18:49.444Z,0
2018-06-11T01:19:49.439Z,0
2018-06-11T01:20:49.434Z,0
2018-06-11T01:21:49.173Z,0
2018-06-11T01:22:49.428Z,0
2018-06-11T01:23:49.432Z,0
2018-06-11T01:24:49.418Z,0
2018-06-11T01:25:49.413Z,0
2018-06-11T01:26:49.414Z,0
2018-06-11T01:27:49.406Z,0
2018-06-11T01:28:49.397Z,0
2018-06-11T01:29:49.395Z,0
2018-06-11T01:30:49.393Z,0
2018-06-11T01:31:49.386Z,0
2018-06-11T01:32:49.385Z,0
2018-06-11T01:33:49.381Z,0
2018-06-11T01:34:49.374Z,0
2018-06-11T01:35:49.371Z,0
2018-06-11T01:36:49.366Z,0
2018-06-11T01:37:49.108Z,0
2018-06-11T01:38:49.356Z,0
2018-06-11T01:39:49.352Z,0
2018-06-11T01:40:49.350Z,0
2018-06-11T01:41:49.085Z,0
2018-06-11T01:42:49.340Z,0
2018-06-11T01:43:49.330Z,0
2018-06-11T01:44:49.073Z,0
2018-06-11T01:45:49.331Z,0
2018-06-11T01:46:49.324Z,0
2018-06-11T01:47:49.316Z,0
2018-06-11T01:48:49.311Z,0
2018-06-11T01:49:49.309Z,0
2018-06-11T01:50:49.304Z,0
2018-06-11T01:51:49.297Z,0
2018-06-11T01:52:49.296Z,0
2018-06-11T01:53:49.288Z,0
2018-06-11T01:54:49.289Z,0
2018-06-11T01:55:49.281Z,0
2018-06-11T01:56:49.279Z,0
2018-06-11T01:57:49.018Z,0
2018-06-11T01:58:49.266Z,0
2018-06-11T01:59:49.308Z,0
2018-06-11T02:00:49.260Z,0
2018-06-11T02:01:49.252Z,0
2018-06-11T02:02:49.251Z,0
2018-06-11T02:03:49.242Z,0
2018-06-11T02:04:49.245Z,0
2018-06-11T02:05:49.237Z,0
2018-06-11T02:06:48.975Z,0
2018-06-11T02:07:49.227Z,0
2018-06-11T02:08:49.220Z,0
2018-06-11T02:09:49.216Z,0
2018-06-11T02:10:48.958Z,0
2018-06-11T02:11:49.209Z,0
2018-06-11T02:12:49.205Z,0
2018-06-11T02:13:49.194Z,0
2018-06-11T02:14:48.936Z,0
2018-06-11T02:15:49.192Z,0
2018-06-11T02:16:49.183Z,0
2018-06-11T02:17:49.183Z,0
2018-06-11T02:18:49.168Z,0
2018-06-11T02:19:48.911Z,0
2018-06-11T02:20:49.161Z,0
2018-06-11T02:21:49.159Z,0
2018-06-11T02:22:49.156Z,0
2018-06-11T02:23:49.150Z,0
2018-06-11T02:24:49.141Z,0
2018-06-11T02:25:49.139Z,0
2018-06-11T02:26:49.140Z,0
2018-06-11T02:27:49.129Z,0
2018-06-11T02:28:48.865Z,0
2018-06-11T02:29:49.122Z,0
2018-06-11T02:30:49.120Z,0
2018-06-11T02:31:49.112Z,0
2018-06-11T02:32:49.115Z,0
2018-06-11T02:33:49.095Z,0
2018-06-11T02:34:48.839Z,0
2018-06-11T02:35:49.091Z,0
2018-06-11T02:36:49.086Z,0
2018-06-11T02:37:49.080Z,0
2018-06-11T02:38:48.816Z,0
2018-06-11T02:39:49.067Z,0
2018-06-11T02:40:49.064Z,0
2018-06-11T02:41:49.058Z,0
2018-06-11T02:42:49.057Z,0
2018-06-11T02:43:49.046Z,0
2018-06-11T02:44:49.043Z,0
2018-06-11T02:45:49.048Z,0
2018-06-11T02:46:48.780Z,0
2018-06-11T02:47:49.033Z,0
2018-06-11T02:48:49.023Z,0
2018-06-11T02:49:48.762Z,0
2018-06-11T02:50:49.019Z,0
2018-06-11T02:51:49.010Z,0
2018-06-11T02:52:49.009Z,0
2018-06-11T02:53:48.745Z,0
2018-06-11T02:54:48.996Z,0
2018-06-11T02:55:48.994Z,0
2018-06-11T02:56:48.984Z,0
2018-06-11T02:57:48.723Z,0
2018-06-11T02:58:48.978Z,0
2018-06-11T02:59:48.973Z,0
2018-06-11T03:00:48.966Z,0
2018-06-11T03:01:48.966Z,0
2018-06-11T03:02:48.955Z,0
2018-06-11T03:03:48.697Z,0
2018-06-11T03:04:48.692Z,0
2018-06-11T03:05:48.684Z,0
2018-06-11T03:06:48.940Z,0
2018-06-11T03:07:48.678Z,0
2018-06-11T03:08:48.930Z,0
2018-06-11T03:09:48.932Z,0
2018-06-11T03:10:48.921Z,0
2018-06-11T03:11:48.923Z,0
2018-06-11T03:12:48.922Z,0
2018-06-11T03:13:48.910Z,0
2018-06-11T03:14:48.901Z,0
2018-06-11T03:15:48.898Z,0
2018-06-11T03:16:48.895Z,0
2018-06-11T03:17:48.888Z,0
2018-06-11T03:18:48.886Z,0
2018-06-11T03:19:48.878Z,0
2018-06-11T03:20:48.877Z,0
2018-06-11T03:21:48.872Z,0
2018-06-11T03:22:48.865Z,0
2018-06-11T03:23:48.910Z,0
2018-06-11T03:24:48.857Z,0
2018-06-11T03:25:48.851Z,0
2018-06-11T03:26:48.846Z,0
2018-06-11T03:27:48.588Z,0
2018-06-11T03:28:48.844Z,0
2018-06-11T03:29:48.835Z,0
2018-06-11T03:30:48.828Z,0
2018-06-11T03:31:48.568Z,0
2018-06-11T03:32:48.816Z,0
2018-06-11T03:33:48.811Z,0
2018-06-11T03:34:48.553Z,0
2018-06-11T03:35:48.897Z,0
2018-06-11T03:36:48.812Z,0
2018-06-11T03:37:48.538Z,0
2018-06-11T03:38:48.792Z,0
2018-06-11T03:39:48.789Z,0
2018-06-11T03:40:48.816Z,0
2018-06-11T03:41:48.777Z,0
2018-06-11T03:42:48.773Z,0
2018-06-11T03:43:48.515Z,0
2018-06-11T03:44:48.770Z,0
2018-06-11T03:45:48.765Z,0
2018-06-11T03:46:48.755Z,0
2018-06-11T03:47:48.753Z,0
2018-06-11T03:48:48.753Z,0
2018-06-11T03:49:48.486Z,0
2018-06-11T03:50:48.483Z,0
2018-06-11T03:51:48.739Z,0
2018-06-11T03:52:48.830Z,0
2018-06-11T03:53:48.728Z,0
2018-06-11T03:54:48.719Z,0
2018-06-11T03:55:48.718Z,0
2018-06-11T03:56:48.716Z,0
2018-06-11T03:57:48.710Z,0
2018-06-11T03:58:48.707Z,0
2018-06-11T03:59:48.696Z,0.57
2018-06-11T04:00:48.447Z,1.91
2018-06-11T04:01:48.695Z,2.87
2018-06-11T04:02:48.431Z,4.31
2018-06-11T04:03:48.684Z,5.84
2018-06-11T04:04:48.677Z,6.7
2018-06-11T04:05:48.675Z,6.8
2018-06-11T04:06:48.672Z,6.8
2018-06-11T04:07:48.668Z,6.51
2018-06-11T04:08:48.675Z,6.32
2018-06-11T04:09:48.660Z,6.23
2018-06-11T04:10:48.781Z,6.42
2018-06-11T04:11:48.397Z,6.04
2018-06-11T04:12:48.393Z,6.51
2018-06-11T04:13:48.647Z,7.09
2018-06-11T04:14:48.385Z,7.18
2018-06-11T04:15:48.640Z,8.53
2018-06-11T04:16:48.640Z,10.64
2018-06-11T04:17:48.629Z,11.88
2018-06-11T04:18:48.622Z,14.28
2018-06-11T04:19:48.620Z,16.3
2018-06-11T04:20:48.621Z,17.93
2018-06-11T04:21:48.620Z,19.46
2018-06-11T04:22:48.611Z,20.61
2018-06-11T04:23:48.610Z,22.63
2018-06-11T04:24:48.606Z,23.3
2018-06-11T04:25:48.348Z,23.68
2018-06-11T04:26:48.342Z,24.85
2018-06-11T04:27:48.599Z,26.09
2018-06-11T04:28:48.592Z,26.95
2018-06-11T04:29:48.336Z,28.01
2018-06-11T04:30:48.586Z,30.7
2018-06-11T04:31:48.581Z,36.36
2018-06-11T04:32:48.587Z,35.4
2018-06-11T04:33:48.574Z,34.82
2018-06-11T04:34:48.317Z,35.11
2018-06-11T04:35:48.577Z,36.46
2018-06-11T04:36:48.567Z,39.04
2018-06-11T04:37:48.565Z,39.04
2018-06-11T04:38:48.563Z,40.22
2018-06-11T04:39:48.558Z,42.33
2018-06-11T04:40:48.559Z,43.38
2018-06-11T04:41:48.296Z,45.5
2018-06-11T04:42:48.549Z,46.84
2018-06-11T04:43:48.549Z,48.09
2018-06-11T04:44:48.546Z,48.28
2018-06-11T04:45:48.544Z,49.69
2018-06-11T04:46:48.536Z,50.01
2018-06-11T04:47:48.535Z,48.25
2018-06-11T04:48:48.536Z,46.34
2018-06-11T04:49:48.530Z,45.57
2018-06-11T04:50:48.533Z,44.51
2018-06-11T04:51:48.525Z,45.09
2018-06-11T04:52:48.523Z,45.28
2018-06-11T04:53:48.517Z,46.26
2018-06-11T04:54:48.516Z,45.78
2018-06-11T04:55:48.520Z,48.09
2018-06-11T04:56:48.256Z,50.2
2018-06-11T04:57:48.515Z,51.73
2018-06-11T04:58:48.508Z,52.98
2018-06-11T04:59:48.504Z,53.17
2018-06-11T05:00:48.246Z,53.68
2018-06-11T05:01:48.497Z,55.57
2018-06-11T05:02:48.240Z,57.52
2018-06-11T05:03:48.238Z,56.15
2018-06-11T05:04:48.492Z,55.86
2018-06-11T05:05:48.492Z,58.45
2018-06-11T05:06:48.489Z,57.3
2018-06-11T05:07:48.485Z,56.15
2018-06-11T05:08:48.480Z,55.38
2018-06-11T05:09:48.223Z,55.38
2018-06-11T05:10:48.478Z,55
2018-06-11T05:11:48.217Z,55.38
2018-06-11T05:12:48.472Z,56.73
2018-06-11T05:13:48.470Z,57.21
2018-06-11T05:14:48.468Z,57.01
2018-06-11T05:15:48.476Z,56.34
2018-06-11T05:16:48.463Z,56.73
2018-06-11T05:17:48.468Z,57.21
2018-06-11T05:18:48.457Z,57.21
2018-06-11T05:19:48.453Z,57.14
2018-06-11T05:20:48.454Z,58.58
2018-06-11T05:21:48.448Z,59.92
2018-06-11T05:22:48.191Z,65.11
2018-06-11T05:23:48.443Z,65.88
2018-06-11T05:24:48.444Z,65.2
2018-06-11T05:25:48.438Z,64.66
2018-06-11T05:26:48.439Z,67.07
2018-06-11T05:27:48.437Z,68.02
2018-06-11T05:28:48.541Z,69.85
2018-06-11T05:29:48.434Z,69.18
2018-06-11T05:30:48.432Z,67.83
2018-06-11T05:31:48.170Z,68.02
2018-06-11T05:32:48.428Z,69.27
2018-06-11T05:33:48.168Z,68.51
2018-06-11T05:34:48.461Z,68.21
2018-06-11T05:35:48.418Z,68.31
2018-06-11T05:36:48.416Z,67.74
2018-06-11T05:37:48.418Z,67.45
2018-06-11T05:38:48.417Z,69.75
2018-06-11T05:39:48.416Z,69.95
2018-06-11T05:40:48.412Z,72.34
2018-06-11T05:41:48.408Z,71.87
2018-06-11T05:42:48.150Z,72.54
2018-06-11T05:43:48.146Z,72.06
2018-06-11T05:44:48.405Z,72.25
2018-06-11T05:45:48.404Z,75.32
2018-06-11T05:46:48.400Z,76.86
2018-06-11T05:47:48.141Z,75.13
2018-06-11T05:48:48.139Z,73.5
2018-06-11T05:49:48.394Z,72.64
2018-06-11T05:50:48.393Z,73.11
2018-06-11T05:51:48.393Z,73.41
2018-06-11T05:52:48.389Z,71.77
2018-06-11T05:53:48.135Z,72.16
2018-06-11T05:54:48.386Z,71.91
2018-06-11T05:55:48.127Z,73.35
2018-06-11T05:56:48.126Z,74.88
2018-06-11T05:57:48.122Z,74.4
2018-06-11T05:58:48.380Z,77.96
2018-06-11T05:59:48.376Z,78.34
2018-06-11T06:00:48.375Z,79.92
2018-06-11T06:01:48.118Z,84.25
2018-06-11T06:02:48.118Z,83.77
2018-06-11T06:03:48.114Z,85.98
2018-06-11T06:04:48.369Z,86.65
2018-06-11T06:05:48.365Z,84.54
2018-06-11T06:06:48.370Z,85.31
2018-06-11T06:07:48.366Z,89.49
2018-06-11T06:08:48.176Z,91.8
2018-06-11T06:09:48.364Z,91.6
2018-06-11T06:10:48.104Z,90.73
2018-06-11T06:11:48.112Z,92.38
2018-06-11T06:12:48.359Z,92.85
2018-06-11T06:13:48.359Z,92.38
2018-06-11T06:14:48.360Z,92.18
2018-06-11T06:15:48.364Z,92.18
2018-06-11T06:16:48.359Z,92.95
2018-06-11T06:17:48.353Z,92.85
2018-06-11T06:18:48.098Z,92.28
2018-06-11T06:19:48.357Z,93.33
2018-06-11T06:20:48.355Z,93.09
2018-06-11T06:21:48.356Z,94.73
2018-06-11T06:22:48.354Z,94.44
2018-06-11T06:23:48.355Z,96.61
2018-06-11T06:24:48.352Z,97.42
2018-06-11T06:25:48.351Z,97.47
2018-06-11T06:26:48.462Z,97.57
2018-06-11T06:27:48.351Z,96.75
2018-06-11T06:28:48.345Z,97.04
2018-06-11T06:29:48.345Z,97.47
2018-06-11T06:30:48.345Z,99.11
2018-06-11T06:31:48.343Z,98.44
2018-06-11T06:32:48.349Z,98.44
2018-06-11T06:33:48.351Z,97.28
2018-06-11T06:34:48.511Z,97.28
2018-06-11T06:35:48.343Z,97.47
2018-06-11T06:36:48.343Z,97.76
2018-06-11T06:37:48.343Z,98.34
2018-06-11T06:38:48.347Z,97.76
2018-06-11T06:39:48.342Z,97.57
2018-06-11T06:40:48.342Z,98.63
2018-06-11T06:41:48.088Z,99.35
2018-06-11T06:42:48.341Z,99.99
2018-06-11T06:43:48.086Z,99.4
2018-06-11T06:44:48.345Z,99.99
2018-06-11T06:45:48.343Z,99.99
2018-06-11T06:46:48.352Z,99.35
2018-06-11T06:47:48.349Z,99.07
2018-06-11T06:48:48.344Z,99.5
2018-06-11T06:49:48.346Z,99.31
2018-06-11T06:50:48.088Z,99.94
2018-06-11T06:51:48.349Z,99.55
2018-06-11T06:52:48.357Z,99.5
2018-06-11T06:53:48.092Z,99.69
2018-06-11T06:54:48.353Z,99.11
2018-06-11T06:55:48.351Z,99.16
2018-06-11T06:56:48.356Z,98.68
2018-06-11T06:57:48.351Z,98.87
2018-06-11T06:58:48.349Z,99.45
2018-06-11T06:59:48.352Z,99.31
2018-06-11T07:00:48.353Z,99.31
2018-06-11T07:01:48.357Z,99.88
2018-06-11T07:02:48.358Z,99.11
2018-06-11T07:03:48.098Z,99.55
2018-06-11T07:04:48.101Z,99.02
2018-06-11T07:05:48.356Z,98
2018-06-11T07:06:48.365Z,95.49
2018-06-11T07:07:48.104Z,93.74
2018-06-11T07:08:48.363Z,91.66
2018-06-11T07:09:48.361Z,90.73
2018-06-11T07:10:48.370Z,89.37
2018-06-11T07:11:48.372Z,87.54
2018-06-11T07:12:48.372Z,87.15
2018-06-11T07:13:48.430Z,83.31
2018-06-11T07:14:48.119Z,84.92
2018-06-11T07:15:48.387Z,87.44
2018-06-11T07:16:48.381Z,89.76
2018-06-11T07:17:48.383Z,90.54
2018-06-11T07:18:48.391Z,90.06
2018-06-11T07:19:48.133Z,88.85
2018-06-11T07:20:48.396Z,91.52
2018-06-11T07:21:48.402Z,92.78
2018-06-11T07:22:48.398Z,93.8
2018-06-11T07:23:48.396Z,96.36
2018-06-11T07:24:48.401Z,97.72
2018-06-11T07:25:48.406Z,98
2018-06-11T07:26:48.149Z,99.11
2018-06-11T07:27:48.408Z,99.16
2018-06-11T07:28:48.416Z,99.5
2018-06-11T07:29:48.421Z,99.3
2018-06-11T07:30:48.158Z,97.96
2018-06-11T07:31:48.415Z,98.2
2018-06-11T07:32:48.428Z,98.58
2018-06-11T07:33:48.161Z,97.42
2018-06-11T07:34:48.420Z,98.15
2018-06-11T07:35:48.420Z,97.38
2018-06-11T07:36:48.165Z,95.84
2018-06-11T07:37:48.424Z,95.64
2018-06-11T07:38:48.425Z,96.51
2018-06-11T07:39:48.426Z,95.31
2018-06-11T07:40:48.169Z,96.56
2018-06-11T07:41:48.425Z,95.55
2018-06-11T07:42:48.426Z,95.16
2018-06-11T07:43:48.429Z,95.94
2018-06-11T07:44:48.431Z,95.94
2018-06-11T07:45:48.434Z,94.29
2018-06-11T07:46:48.431Z,95.94
2018-06-11T07:47:48.171Z,97.28
2018-06-11T07:48:48.176Z,96.7
2018-06-11T07:49:48.175Z,96.8
2018-06-11T07:50:48.514Z,96.42
2018-06-11T07:51:48.249Z,96.22
2018-06-11T07:52:48.431Z,95.69
2018-06-11T07:53:48.436Z,95.4
2018-06-11T07:54:48.433Z,94.92
2018-06-11T07:55:48.478Z,94.15
2018-06-11T07:56:48.442Z,93.77
2018-06-11T07:57:48.437Z,94.49
2018-06-11T07:58:48.436Z,95.12
2018-06-11T07:59:48.434Z,96.37
2018-06-11T08:00:48.432Z,96.03
2018-06-11T08:01:48.433Z,97.57
2018-06-11T08:02:48.435Z,96.99
2018-06-11T08:03:48.174Z,98.15
2018-06-11T08:04:48.431Z,97.72
2018-06-11T08:05:48.176Z,97.72
2018-06-11T08:06:48.432Z,98.1
2018-06-11T08:07:48.176Z,98.1
2018-06-11T08:08:48.175Z,98.39
2018-06-11T08:09:48.432Z,98.39
2018-06-11T08:10:48.438Z,97.72
2018-06-11T08:11:48.178Z,97.67
2018-06-11T08:12:48.434Z,98.34
2018-06-11T08:13:48.442Z,98.77
2018-06-11T08:14:48.432Z,98.1
2018-06-11T08:15:48.432Z,97.42
2018-06-11T08:16:48.438Z,96.89
2018-06-11T08:17:48.177Z,97.57
2018-06-11T08:18:48.434Z,96.7
2018-06-11T08:19:48.437Z,95.36
2018-06-11T08:20:48.489Z,95.45
2018-06-11T08:21:48.433Z,95.07
2018-06-11T08:22:48.181Z,95.74
2018-06-11T08:23:48.435Z,93.38
2018-06-11T08:24:48.443Z,92.8
2018-06-11T08:25:48.442Z,92.61
2018-06-11T08:26:48.433Z,93.87
2018-06-11T08:27:48.436Z,93.67
2018-06-11T08:28:48.436Z,93.19
2018-06-11T08:29:48.437Z,92.03
2018-06-11T08:30:48.438Z,92.61
2018-06-11T08:31:48.432Z,93.87
2018-06-11T08:32:48.178Z,94.15
2018-06-11T08:33:48.500Z,95.69
2018-06-11T08:34:48.436Z,95.16
2018-06-11T08:35:48.178Z,95.79
2018-06-11T08:36:48.437Z,94.29
2018-06-11T08:37:48.435Z,94.29
2018-06-11T08:38:48.475Z,94.49
2018-06-11T08:39:48.436Z,96.51
2018-06-11T08:40:48.178Z,96.03
2018-06-11T08:41:48.435Z,95.31
2018-06-11T08:42:48.434Z,95.02
2018-06-11T08:43:48.457Z,95.5
2018-06-11T08:44:48.439Z,97.33
2018-06-11T08:45:48.434Z,97.62
2018-06-11T08:46:48.432Z,99.21
2018-06-11T08:47:48.434Z,98.82
2018-06-11T08:48:48.180Z,98.63
2018-06-11T08:49:48.433Z,97.77
2018-06-11T08:50:48.433Z,98.25
2018-06-11T08:51:48.179Z,97.86
2018-06-11T08:52:48.442Z,98.82
2018-06-11T08:53:48.434Z,98.73
2018-06-11T08:54:48.439Z,98.2
2018-06-11T08:55:48.438Z,97.91
2018-06-11T08:56:48.439Z,97.72
2018-06-11T08:57:48.438Z,98.78
2018-06-11T08:58:48.445Z,99.45
2018-06-11T08:59:48.523Z,98.68
2018-06-11T09:00:48.439Z,98.68
2018-06-11T09:01:48.442Z,98.87
2018-06-11T09:02:48.186Z,98.87
2018-06-11T09:03:48.443Z,98.97
2018-06-11T09:04:48.445Z,99.26
2018-06-11T09:05:48.443Z,98.29
2018-06-11T09:06:48.445Z,99.45
2018-06-11T09:07:48.196Z,98.2
2018-06-11T09:08:48.458Z,99.16
2018-06-11T09:09:48.451Z,98.58
2018-06-11T09:10:48.451Z,98.78
2018-06-11T09:11:48.453Z,97.81
2018-06-11T09:12:48.460Z,98.58
2018-06-11T09:13:48.456Z,98.78
2018-06-11T09:14:48.198Z,98.73
2018-06-11T09:15:48.454Z,97.96
2018-06-11T09:16:48.454Z,98.49
2018-06-11T09:17:48.459Z,99.11
2018-06-11T09:18:48.203Z,97.47
2018-06-11T09:19:48.459Z,96.94
2018-06-11T09:20:48.202Z,97.62
2018-06-11T09:21:48.463Z,97.81
2018-06-11T09:22:48.467Z,98.25
2018-06-11T09:23:48.468Z,96.8
2018-06-11T09:24:48.467Z,95.15
2018-06-11T09:25:48.209Z,96.22
2018-06-11T09:26:48.472Z,95.83
2018-06-11T09:27:48.470Z,96.22
2018-06-11T09:28:48.469Z,96.8
2018-06-11T09:29:48.473Z,97.28
2018-06-11T09:30:48.477Z,97.77
2018-06-11T09:31:48.478Z,95.93
2018-06-11T09:32:48.486Z,96.8
2018-06-11T09:33:48.482Z,96.12
2018-06-11T09:34:48.483Z,96.07
2018-06-11T09:35:48.232Z,96.36
2018-06-11T09:36:48.487Z,95.49
2018-06-11T09:37:48.488Z,95.29
2018-06-11T09:38:48.492Z,94.57
2018-06-11T09:39:48.237Z,94.76
2018-06-11T09:40:48.498Z,93.7
2018-06-11T09:41:48.506Z,91.38
2018-06-11T09:42:48.502Z,93.36
2018-06-11T09:43:48.634Z,94.33
2018-06-11T09:44:48.250Z,94.96
2018-06-11T09:45:48.514Z,94.96
2018-06-11T09:46:48.514Z,94.76
2018-06-11T09:47:48.514Z,96.12
2018-06-11T09:48:48.260Z,96.22
2018-06-11T09:49:48.519Z,95.88
2018-06-11T09:50:48.524Z,96.65
2018-06-11T09:51:48.524Z,97.33
2018-06-11T09:52:48.530Z,97.81
2018-06-11T09:53:48.526Z,96.46
2018-06-11T09:54:48.277Z,96.36
2018-06-11T09:55:48.355Z,96.65
2018-06-11T09:56:48.539Z,97.23
2018-06-11T09:57:48.539Z,97.33
2018-06-11T09:58:48.539Z,97.96
2018-06-11T09:59:48.540Z,97.96
2018-06-11T10:00:48.551Z,97.96
2018-06-11T10:01:48.546Z,98.25
2018-06-11T10:02:48.548Z,97.57
2018-06-11T10:03:48.554Z,98.15
2018-06-11T10:04:48.554Z,97.09
2018-06-11T10:05:48.557Z,96.7
2018-06-11T10:06:48.556Z,97.19
2018-06-11T10:07:48.303Z,96.8
2018-06-11T10:08:48.565Z,96.8
2018-06-11T10:09:48.568Z,95.35
2018-06-11T10:10:48.567Z,95.93
2018-06-11T10:11:48.314Z,95.06
2018-06-11T10:12:48.571Z,94.53
2018-06-11T10:13:48.571Z,95.4
2018-06-11T10:14:48.572Z,93.95
2018-06-11T10:15:48.582Z,94.57
2018-06-11T10:16:48.581Z,94.72
2018-06-11T10:17:48.580Z,95.3
2018-06-11T10:18:48.582Z,95.4
2018-06-11T10:19:48.586Z,94.91
2018-06-11T10:20:48.338Z,95.2
2018-06-11T10:21:48.593Z,95.2
2018-06-11T10:22:48.594Z,95.01
2018-06-11T10:23:48.347Z,95.4
2018-06-11T10:24:48.675Z,95.98
2018-06-11T10:25:48.600Z,96.31
2018-06-11T10:26:48.599Z,95.83
2018-06-11T10:27:48.609Z,96.12
2018-06-11T10:28:48.348Z,96.8
2018-06-11T10:29:48.610Z,96.7
2018-06-11T10:30:48.609Z,95.25
2018-06-11T10:31:48.617Z,95.15
2018-06-11T10:32:48.614Z,95.88
2018-06-11T10:33:48.621Z,96.36
2018-06-11T10:34:48.362Z,96.8
2018-06-11T10:35:48.626Z,95.98
2018-06-11T10:36:48.826Z,96.84
2018-06-11T10:37:48.625Z,97.62
2018-06-11T10:38:48.630Z,96.02
2018-06-11T10:39:48.631Z,96.84
2018-06-11T10:40:48.635Z,96.65
2018-06-11T10:41:48.636Z,95.49
2018-06-11T10:42:48.637Z,95.98
2018-06-11T10:43:48.382Z,96.84
2018-06-11T10:44:48.647Z,96.6
2018-06-11T10:45:48.642Z,95.01
2018-06-11T10:46:48.644Z,95.1
2018-06-11T10:47:48.648Z,95.1
2018-06-11T10:48:48.653Z,95.3
2018-06-11T10:49:48.397Z,96.56
2018-06-11T10:50:48.656Z,97.38
2018-06-11T10:51:48.663Z,97.86
2018-06-11T10:52:48.657Z,97.33
2018-06-11T10:53:48.661Z,96.99
2018-06-11T10:54:48.664Z,97.57
2018-06-11T10:55:48.664Z,97.47
2018-06-11T10:56:48.668Z,98.15
2018-06-11T10:57:48.415Z,97.28
2018-06-11T10:58:48.415Z,98.1
2018-06-11T10:59:48.678Z,97.42
2018-06-11T11:00:48.680Z,97.72
2018-06-11T11:01:48.678Z,98.49
2018-06-11T11:02:48.679Z,98.39
2018-06-11T11:03:48.682Z,97.62
2018-06-11T11:04:48.682Z,98
2018-06-11T11:05:48.687Z,99.16
2018-06-11T11:06:48.694Z,97.91
2018-06-11T11:07:48.692Z,98.3
2018-06-11T11:08:48.756Z,98.3
2018-06-11T11:09:48.701Z,98.1
2018-06-11T11:10:48.694Z,98.3
2018-06-11T11:11:48.699Z,98.39
2018-06-11T11:12:48.699Z,98.3
2018-06-11T11:13:48.700Z,98.1
2018-06-11T11:14:48.702Z,98.2
2018-06-11T11:15:48.450Z,98.1
2018-06-11T11:16:48.707Z,98.1
2018-06-11T11:17:48.712Z,97.81
2018-06-11T11:18:48.703Z,97.14
2018-06-11T11:19:48.705Z,98.3
2018-06-11T11:20:48.453Z,98.78
2018-06-11T11:21:48.478Z,98.2
2018-06-11T11:22:48.715Z,98.3
2018-06-11T11:23:48.713Z,98.3
2018-06-11T11:24:48.717Z,99.65
2018-06-11T11:25:48.721Z,97.72
2018-06-11T11:26:48.463Z,98.39
2018-06-11T11:27:48.731Z,98.3
2018-06-11T11:28:48.728Z,98.2
2018-06-11T11:29:48.729Z,98
2018-06-11T11:30:48.729Z,97.33
2018-06-11T11:31:48.728Z,97.42
2018-06-11T11:32:48.730Z,98.1
2018-06-11T11:33:48.839Z,98.1
2018-06-11T11:34:48.731Z,98.1
2018-06-11T11:35:48.741Z,98.2
2018-06-11T11:36:48.480Z,98.2
2018-06-11T11:37:48.481Z,98.97
2018-06-11T11:38:48.483Z,98.2
2018-06-11T11:39:48.744Z,98.1
2018-06-11T11:40:48.746Z,98.39
2018-06-11T11:41:48.743Z,98.1
2018-06-11T11:42:48.748Z,97.72
2018-06-11T11:43:48.747Z,97.72
2018-06-11T11:44:48.751Z,98.58
2018-06-11T11:45:48.756Z,98.2
2018-06-11T11:46:48.495Z,98.49
2018-06-11T11:47:48.752Z,98.39
2018-06-11T11:48:48.759Z,97.96
2018-06-11T11:49:48.754Z,98.25
2018-06-11T11:50:48.757Z,98.35
2018-06-11T11:51:48.765Z,98.05
2018-06-11T11:52:48.766Z,98.44
2018-06-11T11:53:48.766Z,98.25
2018-06-11T11:54:48.765Z,98.49
2018-06-11T11:55:48.771Z,98.3
2018-06-11T11:56:48.511Z,98.39
2018-06-11T11:57:48.775Z,98.49
2018-06-11T11:58:48.775Z,98.39
2018-06-11T11:59:48.516Z,98
2018-06-11T12:00:48.782Z,98
2018-06-11T12:01:48.906Z,97.81
2018-06-11T12:02:48.783Z,97.72
2018-06-11T12:03:48.788Z,98.2
2018-06-11T12:04:48.788Z,98.83
2018-06-11T12:05:48.783Z,98
2018-06-11T12:06:48.819Z,97.96
2018-06-11T12:07:48.781Z,98.54
2018-06-11T12:08:48.787Z,98.44
2018-06-11T12:09:48.787Z,98.15
2018-06-11T12:10:48.790Z,97.96
2018-06-11T12:11:48.539Z,97.96
2018-06-11T12:12:48.795Z,98.35
2018-06-11T12:13:48.873Z,98.25
2018-06-11T12:14:48.798Z,97.86
2018-06-11T12:15:48.797Z,98.15
2018-06-11T12:16:48.798Z,99.11
2018-06-11T12:17:48.799Z,98.35
2018-06-11T12:18:48.549Z,97.57
2018-06-11T12:19:48.804Z,97.67
2018-06-11T12:20:48.810Z,98.05
2018-06-11T12:21:48.807Z,98.63
2018-06-11T12:22:48.554Z,97.91
2018-06-11T12:23:48.556Z,97.81
2018-06-11T12:24:48.815Z,96.75
2018-06-11T12:25:48.819Z,97.04
2018-06-11T12:26:48.826Z,98.3
2018-06-11T12:27:48.833Z,98.1
2018-06-11T12:28:48.569Z,97.28
2018-06-11T12:29:48.826Z,98.05
2018-06-11T12:30:48.569Z,97.28
2018-06-11T12:31:48.842Z,97.77
2018-06-11T12:32:48.830Z,96.56
2018-06-11T12:33:48.835Z,96.46
2018-06-11T12:34:48.837Z,97.47
2018-06-11T12:35:48.836Z,97.18
2018-06-11T12:36:48.838Z,97.28
2018-06-11T12:37:48.839Z,96.22
2018-06-11T12:38:48.846Z,96.22
2018-06-11T12:39:48.968Z,96.99
2018-06-11T12:40:48.592Z,97.38
2018-06-11T12:41:48.854Z,96.02
2018-06-11T12:42:48.852Z,97.33
2018-06-11T12:43:48.857Z,97.86
2018-06-11T12:44:48.863Z,97.47
2018-06-11T12:45:48.860Z,97.86
2018-06-11T12:46:48.863Z,97.18
2018-06-11T12:47:49.068Z,96.22
2018-06-11T12:48:48.867Z,96.65
2018-06-11T12:49:48.869Z,94.43
2018-06-11T12:50:48.871Z,94.04
2018-06-11T12:51:48.645Z,95.1
2018-06-11T12:52:49.055Z,95.06
2018-06-11T12:53:48.898Z,94.96
2018-06-11T12:54:48.626Z,96.8
2018-06-11T12:55:48.886Z,96.6
2018-06-11T12:56:48.895Z,97.09
2018-06-11T12:57:48.889Z,96.6
2018-06-11T12:58:48.639Z,97.77
2018-06-11T12:59:48.640Z,97.38
2018-06-11T13:00:48.643Z,97.86
2018-06-11T13:01:48.911Z,96.89
2018-06-11T13:02:48.647Z,97.57
2018-06-11T13:03:48.652Z,97.52
2018-06-11T13:04:48.949Z,98.1
2018-06-11T13:05:48.652Z,97.33
2018-06-11T13:06:48.912Z,97.42
2018-06-11T13:07:48.914Z,97.47
2018-06-11T13:08:48.915Z,97.67
2018-06-11T13:09:48.921Z,97.67
2018-06-11T13:10:48.921Z,97.57
2018-06-11T13:11:48.925Z,98.25
2018-06-11T13:12:48.922Z,97.57
2018-06-11T13:13:48.929Z,98.15
2018-06-11T13:14:48.674Z,98.2
2018-06-11T13:15:48.675Z,98
2018-06-11T13:16:48.937Z,97.42
2018-06-11T13:17:48.678Z,97.33
2018-06-11T13:18:48.937Z,97.23
2018-06-11T13:19:48.942Z,97.33
2018-06-11T13:20:48.945Z,96.94
2018-06-11T13:21:48.954Z,97.72
2018-06-11T13:22:48.946Z,97.81
2018-06-11T13:23:48.951Z,97.33
2018-06-11T13:24:48.957Z,96.7
2018-06-11T13:25:48.954Z,97.42
2018-06-11T13:26:48.954Z,97.62
2018-06-11T13:27:48.957Z,97.33